Springhill, Texas
Current Conditions -  °F | °C
As of 2:55 AM on Friday 31 Oct 2014 (Local Time) from KLXY Reporting Station
Clear Clear  
Wind Chill: 61°   Ceiling: Unl
Heat Index: 61°   Visibility: 10mi
Dew Point: 52°   Wind: 9mph
Humidity: 71%   Direction: 350°N
Pressure: 30.15"   Gusts: NA
Location:  31.8746°N, 96.6599°W
Report Text: KLXY 310755Z AUTO 35008KT 10SM CLR 16/11 A3015 RMK AO2 T01620109
Loading
Personal Weather Stations






























Interactive Weather Map
Tropical Storm Tracking
New forecast layout! Learn more

10-Day Weather Forecast

Advertisements
Track Severe Weather on mobile